Blomkest, MN

6:32 PM CDT on October 24, 2014 (GMT -0500)
Willmar | Change Station
CLOSE
Current Station
Airport
Location: Willmar,
Elevation: 1125 ft
Nearby Weather Stations

Elev 1125 ft 45.12 °N, 95.13 °W | Updated 17 minutes ago

Clear
Clear
66 °F
Feels Like 66 °F
N
6
Wind Variable Wind from SW
Gusts 6 mph

Today
High -- | Low -- °F
--% Chance of Precip.
Yesterday
High -- | Low -- °F
Precip. -- in
7:47 AM 6:20 PM
New Moon, 1% visible
Pressure 29.87 in
Visibility 10.0 miles
Clouds
Dew Point 39 °F
Humidity 37%
Rainfall 0.00 in
Snow Depth Not available.
UV Not available.
Pollen 1.70 out of 12
Air Quality Not available.
Flu Activity Sporadic
METAR KBDH 242315Z AUTO 23005KT 10SM 19/04 A2987 RMK AO2

More Conditions Fewer Conditions

Pressure 29.87 in
Visibility 10.0 miles
Clouds
Dew Point 39 °F
Humidity 37%
Rainfall 0.00 in
Snow Depth Not available.
UV Not available.
Pollen 1.70 out of 12
Air Quality Not available.
Flu Activity Sporadic
METAR KBDH 242315Z AUTO 23005KT 10SM 19/04 A2987 RMK AO2

More Conditions Fewer Conditions

10-Day Weather Forecast

Almanac

Astronomy

Oct. 24, 2014 Rise Set
Actual Time 7:47 AM CDT 6:20 PM CDT
Civil Twilight 7:17 AM CDT 6:50 PM CDT
Nautical Twilight 6:43 AM CDT 7:24 PM CDT
Astronomical Twilight 6:09 AM CDT 7:58 PM CDT
Moon 8:29 AM CDT 6:58 PM CDT
Length of Visible Light 11h 32m
Length of Day
10h 32m
Tomorrow will be 2m 55s shorter.
New Moon, 1% of the Moon is Illuminated
Today
New Moon
Oct 30
First Quarter
Nov 6
Full
Nov 14
Last Quarter
Nov 22
New

Today's Extremes

State Highs State Lows

Community

WunderPhotos

Upload Photos

1,764,712 photos uploaded!

Nearby

Snow Depth

Station Depth Elevation
No new snow has been reported.

Earthquake Activity

City Distance Mag. Time & Date
No recent earthquake activity has been reported nearby.
Minimum magnitude displayed is 2.5.

Coastal Water Temperatures

Place Temperature
No Stations Reporting

Nearby Weather Stations